Flight Track Log - Related Links

Times and Time Zones

All times are in EDT time to prevent confusion due to time zone crossing. See the AAY861 flight status page for this flight to view local times or setup timezone preferences in your user account.

Time Position Orientation Groundspeed Altitude Reporting Facility
EDT Latitude Longitude Course Direction KTS MPH feet Rate Location/Type
Fri 10:27:42 AM 38.0128 -84.6272 207° Southwest 168 193 2,500  Level Indianapolis Center
Fri 10:28:44 AM 37.9594 -84.6614 207° Southwest 234 269 4,200 2,390 Climbing Indianapolis Center
Fri 10:29:45 AM 37.8892 -84.6367 164° South 267 307 7,400 2,927 Climbing Indianapolis Center
Fri 10:30:47 AM 37.8097 -84.6128 167° South 288 331 10,200 2,177 Climbing Indianapolis Center
Fri 10:31:49 AM 37.7036 -84.5844 168° South 332 382 11,900 1,790 Climbing Indianapolis Center
Fri 10:32:51 AM 37.5956 -84.5903 182° South 377 434 13,900 1,839 Climbing Indianapolis Center
Fri 10:33:53 AM 37.4889 -84.5978 183° South 383 441 15,700 2,195 Climbing Indianapolis Center
Fri 10:34:54 AM 37.3781 -84.6050 183° South 394 453 18,400 2,146 Climbing Indianapolis Center
Fri 10:35:56 AM 37.2669 -84.6281 189° South 406 467 20,100 1,887 Climbing Indianapolis Center
Fri 10:36:58 AM 37.1394 -84.6747 196° South 412 474 22,300 1,403 Climbing Indianapolis Center
Fri 10:38:00 AM 37.0272 -84.7150 196° South 418 481 23,000 1,065 Climbing Indianapolis Center
Fri 10:39:02 AM 36.9122 -84.7572 196° South 424 488 24,500 1,610 Climbing Indianapolis Center
Fri 10:40:03 AM 36.7878 -84.7297 170° South 466 536 26,300 1,756 Climbing Indianapolis Center
Fri 10:41:05 AM 36.6678 -84.6675 157° South 466 536 28,100 1,742 Climbing Indianapolis Center
Fri 10:42:07 AM 36.5464 -84.6061 158° South 466 536 29,900 1,500 Climbing Indianapolis Center
Fri 10:43:09 AM 36.4272 -84.5450 158° South 466 536 31,200 1,122 Climbing Indianapolis Center
Fri 10:44:10 AM 36.2842 -84.4722 158° South 462 532 32,200 878 Climbing Indianapolis Center
Fri 10:45:12 AM 36.1617 -84.4097 158° South 467 537 33,000 387 Climbing Indianapolis Center
Fri 10:46:14 AM 36.0419 -84.3486 158° South 467 537 33,000  Level Indianapolis Center
Fri 10:47:15 AM 35.9214 -84.2886 158° South 465 535 33,000  Level Indianapolis Center
Fri 10:48:17 AM 35.8011 -84.2292 158° South 465 535 33,000  Level Indianapolis Center
Fri 10:49:19 AM 35.6817 -84.1697 158° South 463 533 33,000  Level Indianapolis Center
Fri 10:50:21 AM 35.5631 -84.1117 158° South 460 529 33,000  Level Indianapolis Center
Fri 10:51:41 AM 35.3908 -84.0286 159° South 471 542 33,000  Level Atlanta Center
Fri 10:52:41 AM 35.2758 -83.9725 158° South 461 531 33,000  Level Atlanta Center
Fri 10:53:41 AM 35.1592 -83.9142 158° South 456 525 33,000  Level Atlanta Center
Fri 10:54:41 AM 35.0422 -83.8561 158° South 456 525 33,000  Level Atlanta Center
Fri 10:55:41 AM 34.9272 -83.7981 158° South 456 525 33,000  Level Atlanta Center
Fri 10:56:41 AM 34.8103 -83.7428 159° South 456 525 33,000  Level Atlanta Center
Fri 10:57:41 AM 34.6975 -83.6875 158° South 451 519 33,000  Level Atlanta Center
Fri 10:58:41 AM 34.5803 -83.6325 159° South 446 513 33,000  Level Atlanta Center
Fri 10:59:41 AM 34.4697 -83.5778 158° South 446 513 33,000  Level Atlanta Center
Fri 11:00:41 AM 34.3525 -83.5231 159° South 446 513 33,000  Level Atlanta Center
Fri 11:01:41 AM 34.2394 -83.4683 158° South 446 513 33,000  Level Atlanta Center
Fri 11:02:41 AM 34.1244 -83.4114 158° South 446 513 33,000  Level Atlanta Center
Fri 11:03:41 AM 34.0094 -83.3572 159° South 451 519 33,000  Level Atlanta Center
Fri 11:04:41 AM 33.8903 -83.3056 160° South 451 519 33,000  Level Atlanta Center
Fri 11:05:41 AM 33.7731 -83.2642 164° South 444 511 33,000  Level Atlanta Center
Fri 11:06:41 AM 33.6664 -83.2300 165° South 438 504 33,000  Level Atlanta Center
Fri 11:07:41 AM 33.5472 -83.1889 164° South 438 504 33,000  Level Atlanta Center
Fri 11:08:41 AM 33.4319 -83.1478 163° South 438 504 33,000 250 Level Atlanta Center
Fri 11:09:41 AM 33.3106 -83.1042 163° South 438 504 33,500 500 Climbing Atlanta Center
Fri 11:10:41 AM 33.1933 -83.0683 166° South 438 504 34,000 250 Climbing Atlanta Center
Fri 11:11:41 AM 33.0742 -83.0275 164° South 438 504 34,000  Level Atlanta Center
Fri 11:14:10 AM 32.7656 -82.9222 164° South 437 503 34,000  Level Jacksonville Center
Fri 11:15:10 AM 32.6489 -82.8828 164° South 437 503 34,000  Level Jacksonville Center
Fri 11:16:10 AM 32.5278 -82.8383 163° South 442 509 34,000  Level Jacksonville Center
Fri 11:17:10 AM 32.4108 -82.7967 163° South 437 503 34,000  Level Jacksonville Center
Fri 11:18:10 AM 32.2917 -82.7575 164° South 437 503 34,000  Level Jacksonville Center
Fri 11:19:10 AM 32.1706 -82.7183 165° South 442 509 34,000  Level Jacksonville Center
Fri 11:20:10 AM 32.0536 -82.6794 164° South 442 509 34,000  Level Jacksonville Center
Fri 11:21:10 AM 31.9303 -82.6406 165° South 447 514 34,000  Level Jacksonville Center
Fri 11:22:10 AM 31.8072 -82.6211 172° South 447 514 34,000  Level Jacksonville Center
Fri 11:23:10 AM 31.6861 -82.6044 173° South 446 513 34,000  Level Jacksonville Center
Fri 11:24:10 AM 31.5650 -82.5903 174° South 446 513 34,000  Level Jacksonville Center
Fri 11:25:10 AM 31.4394 -82.5736 174° South 441 507 34,000 -50 Level Jacksonville Center
Fri 11:26:10 AM 31.3183 -82.5642 176° South 441 507 33,900  Descending Jacksonville Center
Fri 11:27:10 AM 31.1972 -82.5525 175° South 446 513 34,000 50 Climbing Jacksonville Center
Fri 11:28:10 AM 31.0761 -82.5361 173° South 446 513 34,000  Level Jacksonville Center
Fri 11:29:10 AM 30.9528 -82.5244 175° South 441 507 34,000 -50 Level Jacksonville Center
Fri 11:30:10 AM 30.8358 -82.5078 173° South 441 507 33,900 -50 Descending Jacksonville Center
Fri 11:31:10 AM 30.7128 -82.4914 173° South 441 507 33,900  Level Jacksonville Center
Fri 11:32:10 AM 30.5917 -82.4822 176° South 441 507 33,900 50 Level Jacksonville Center
Fri 11:33:10 AM 30.4850 -82.4658 172° South 441 507 34,000  Climbing Jacksonville Center
Fri 11:34:10 AM 30.3661 -82.4519 174° South 441 507 33,900  Descending Jacksonville Center
Fri 11:35:10 AM 30.2447 -82.4381 174° South 441 507 34,000 50 Climbing Jacksonville Center
Fri 11:36:10 AM 30.1278 -82.4242 174° South 441 507 34,000  Level Jacksonville Center
Fri 11:37:10 AM 29.9961 -82.4033 172° South 441 507 34,000 -850 Level Jacksonville Center
Fri 11:38:10 AM 29.8772 -82.3919 175° South 441 507 32,300 -1,900 Descending Jacksonville Center
Fri 11:39:10 AM 29.7581 -82.3783 174° South 441 507 30,200 -2,250 Descending Jacksonville Center
Fri 11:40:10 AM 29.6433 -82.3669 175° South 430 495 27,800 -2,150 Descending Jacksonville Center
Fri 11:41:10 AM 29.5242 -82.3508 173° South 430 495 25,900 -1,450 Descending Jacksonville Center
Fri 11:42:10 AM 29.4031 -82.3372 174° South 430 495 24,900 -1,050 Descending Jacksonville Center
Fri 11:43:10 AM 29.2778 -82.3236 175° South 443 510 23,800 -1,150 Descending Jacksonville Center
Fri 11:44:10 AM 29.1503 -82.3053 173° South 457 526 22,600 -1,450 Descending Jacksonville Center
Fri 11:45:10 AM 29.0231 -82.2919 175° South 463 533 20,900 -2,200 Descending Jacksonville Center
Fri 11:46:10 AM 28.9164 -82.2806 175° South 458 527 18,200 -3,423 Descending Jacksonville Center
Fri 11:47:53 AM 28.7167 -82.2667 177° South 396 456 11,600 -3,018 Descending Tampa TRACON
Fri 11:48:53 AM 28.6000 -82.2667 180° South 384 442 10,000 -800 Descending Tampa TRACON
Fri 11:49:53 AM 28.5167 -82.3167 208° Southwest 372 428 10,000  Level Tampa TRACON
Fri 11:50:53 AM 28.4833 -82.4167 249° West 322 371 10,000 -700 Level Tampa TRACON
Fri 11:51:53 AM 28.4500 -82.5000 246° West 276 318 8,600 -1,524 Descending Tampa TRACON
Fri 11:52:59 AM 28.4167 -82.6000 249° West 272 313 6,800 -1,619 Descending Tampa TRACON
Fri 11:53:59 AM 28.3833 -82.6667 240° Southwest 272 313 5,200 -1,400 Descending Tampa TRACON
Fri 11:54:59 AM 28.3167 -82.7167 213° Southwest 266 306 4,000 -600 Descending Tampa TRACON
Fri 11:55:59 AM 28.2667 -82.7333 196° South 222 255 4,000  Level Tampa TRACON
Fri 11:56:59 AM 28.2000 -82.7167 168° South 223 257 4,000 -248 Level Tampa TRACON
Fri 11:58:00 AM 28.1333 -82.7000 168° South 213 245 3,500 -756 Descending Tampa TRACON
Fri 11:59:06 AM 28.0833 -82.6833 164° South 178 205 2,400 -857 Descending Tampa TRACON
Fri 12:00:06 PM 28.0333 -82.6667 164° South 175 201 1,700 -750 Descending Tampa TRACON
Fri 12:01:06 PM 27.9833 -82.6833 196° South 193 222 900 -650 Descending Tampa TRACON
Fri 12:02:06 PM 27.9333 -82.7000 196° South 139 160 400 -500 Descending Tampa TRACON
Fri 12:04:00 PM 27.9100 -82.6875 310° West  Level Estimated
Fri 12:11:00 PM 27.9100 -82.6875 310° West  Level Estimated

Login

Don't have an account? Register now (free) for customized features, flight alerts, and more!